<?xml version="1.0" encoding="UTF-8" standalone="no" ?>
<gpx xmlns="http://www.topografix.com/GPX/1/1" xmlns:xsi="http://www.w3.org/2001/XMLSchema-instance" xsi:schemaLocation="http://www.topografix.com/GPX/1/1 http://www.topografix.com/GPX/1/1/gpx.xsd" version="1.1" creator="VisuGPX - https://www.visugpx.com">
  <metadata>
    <name>qgpNiXWLg9</name>
    <desc><![CDATA[

]]></desc>
  </metadata>
  <trk>
    <name><![CDATA[qgpNiXWLg9_1]]></name>
    <trkseg>
      <trkpt lat="45.58614" lon="3.84586">
        <ele>1384</ele>
        <time>2012-05-02T19:32:16Z</time>
      </trkpt>
      <trkpt lat="45.58614" lon="3.84586">
        <ele>1384</ele>
        <time>2012-05-02T19:32:56Z</time>
      </trkpt>
      <trkpt lat="45.58678" lon="3.84537">
        <ele>1384</ele>
        <time>2012-05-02T19:33:36Z</time>
      </trkpt>
      <trkpt lat="45.58733" lon="3.8448">
        <ele>1386</ele>
        <time>2012-05-02T19:34:16Z</time>
      </trkpt>
      <trkpt lat="45.58846" lon="3.844">
        <ele>1387</ele>
        <time>2012-05-02T19:34:56Z</time>
      </trkpt>
      <trkpt lat="45.58973" lon="3.8434">
        <ele>1386</ele>
        <time>2012-05-02T19:35:36Z</time>
      </trkpt>
      <trkpt lat="45.59059" lon="3.84323">
        <ele>1384</ele>
        <time>2012-05-02T19:36:16Z</time>
      </trkpt>
      <trkpt lat="45.59126" lon="3.84325">
        <ele>1378</ele>
        <time>2012-05-02T19:36:56Z</time>
      </trkpt>
      <trkpt lat="45.59156" lon="3.84441">
        <ele>1372</ele>
        <time>2012-05-02T19:37:36Z</time>
      </trkpt>
      <trkpt lat="45.59186" lon="3.84544">
        <ele>1369</ele>
        <time>2012-05-02T19:38:16Z</time>
      </trkpt>
      <trkpt lat="45.59217" lon="3.84583">
        <ele>1367</ele>
        <time>2012-05-02T19:38:56Z</time>
      </trkpt>
      <trkpt lat="45.5924" lon="3.84584">
        <ele>1366</ele>
        <time>2012-05-02T19:39:36Z</time>
      </trkpt>
      <trkpt lat="45.59243" lon="3.84567">
        <ele>1366</ele>
        <time>2012-05-02T19:40:16Z</time>
      </trkpt>
      <trkpt lat="45.59255" lon="3.84572">
        <ele>1366</ele>
        <time>2012-05-02T19:40:56Z</time>
      </trkpt>
      <trkpt lat="45.59415" lon="3.8488">
        <ele>1376</ele>
        <time>2012-05-02T19:41:36Z</time>
      </trkpt>
      <trkpt lat="45.59478" lon="3.84925">
        <ele>1377</ele>
        <time>2012-05-02T19:42:16Z</time>
      </trkpt>
      <trkpt lat="45.59597" lon="3.84932">
        <ele>1380</ele>
        <time>2012-05-02T19:42:56Z</time>
      </trkpt>
      <trkpt lat="45.59675" lon="3.84928">
        <ele>1379</ele>
        <time>2012-05-02T19:43:36Z</time>
      </trkpt>
      <trkpt lat="45.59745" lon="3.84897">
        <ele>1378</ele>
        <time>2012-05-02T19:44:16Z</time>
      </trkpt>
      <trkpt lat="45.59887" lon="3.84752">
        <ele>1386</ele>
        <time>2012-05-02T19:44:56Z</time>
      </trkpt>
      <trkpt lat="45.60055" lon="3.84525">
        <ele>1388</ele>
        <time>2012-05-02T19:45:36Z</time>
      </trkpt>
      <trkpt lat="45.60073" lon="3.84535">
        <ele>1389</ele>
        <time>2012-05-02T19:46:16Z</time>
      </trkpt>
      <trkpt lat="45.6009" lon="3.84618">
        <ele>1387</ele>
        <time>2012-05-02T19:46:56Z</time>
      </trkpt>
      <trkpt lat="45.60113" lon="3.84652">
        <ele>1388</ele>
        <time>2012-05-02T19:47:36Z</time>
      </trkpt>
      <trkpt lat="45.60132" lon="3.84657">
        <ele>1389</ele>
        <time>2012-05-02T19:48:16Z</time>
      </trkpt>
      <trkpt lat="45.60197" lon="3.84625">
        <ele>1394</ele>
        <time>2012-05-02T19:48:56Z</time>
      </trkpt>
      <trkpt lat="45.60296" lon="3.8457">
        <ele>1398</ele>
        <time>2012-05-02T19:49:36Z</time>
      </trkpt>
      <trkpt lat="45.60378" lon="3.84473">
        <ele>1404</ele>
        <time>2012-05-02T19:50:16Z</time>
      </trkpt>
      <trkpt lat="45.60397" lon="3.84435">
        <ele>1405</ele>
        <time>2012-05-02T19:50:56Z</time>
      </trkpt>
      <trkpt lat="45.60698" lon="3.84362">
        <ele>1408</ele>
        <time>2012-05-02T19:51:36Z</time>
      </trkpt>
      <trkpt lat="45.60777" lon="3.84358">
        <ele>1414</ele>
        <time>2012-05-02T19:52:16Z</time>
      </trkpt>
      <trkpt lat="45.60813" lon="3.84377">
        <ele>1415</ele>
        <time>2012-05-02T19:52:56Z</time>
      </trkpt>
      <trkpt lat="45.6118" lon="3.84342">
        <ele>1413</ele>
        <time>2012-05-02T19:53:36Z</time>
      </trkpt>
      <trkpt lat="45.61307" lon="3.84302">
        <ele>1415</ele>
        <time>2012-05-02T19:54:16Z</time>
      </trkpt>
      <trkpt lat="45.61417" lon="3.84287">
        <ele>1416</ele>
        <time>2012-05-02T19:54:56Z</time>
      </trkpt>
      <trkpt lat="45.61542" lon="3.84286">
        <ele>1419</ele>
        <time>2012-05-02T19:55:36Z</time>
      </trkpt>
      <trkpt lat="45.61568" lon="3.8432">
        <ele>1421</ele>
        <time>2012-05-02T19:56:16Z</time>
      </trkpt>
      <trkpt lat="45.61613" lon="3.84453">
        <ele>1425</ele>
        <time>2012-05-02T19:56:56Z</time>
      </trkpt>
      <trkpt lat="45.61632" lon="3.84482">
        <ele>1427</ele>
        <time>2012-05-02T19:57:36Z</time>
      </trkpt>
      <trkpt lat="45.61695" lon="3.84482">
        <ele>1431</ele>
        <time>2012-05-02T19:58:16Z</time>
      </trkpt>
      <trkpt lat="45.6183" lon="3.84558">
        <ele>1438</ele>
        <time>2012-05-02T19:58:56Z</time>
      </trkpt>
      <trkpt lat="45.61957" lon="3.84585">
        <ele>1451</ele>
        <time>2012-05-02T19:59:36Z</time>
      </trkpt>
      <trkpt lat="45.62083" lon="3.84653">
        <ele>1461</ele>
        <time>2012-05-02T20:00:16Z</time>
      </trkpt>
      <trkpt lat="45.62142" lon="3.84665">
        <ele>1465</ele>
        <time>2012-05-02T20:00:56Z</time>
      </trkpt>
      <trkpt lat="45.62168" lon="3.84667">
        <ele>1466</ele>
        <time>2012-05-02T20:01:36Z</time>
      </trkpt>
      <trkpt lat="45.62245" lon="3.84632">
        <ele>1470</ele>
        <time>2012-05-02T20:02:16Z</time>
      </trkpt>
      <trkpt lat="45.6227" lon="3.84552">
        <ele>1472</ele>
        <time>2012-05-02T20:02:56Z</time>
      </trkpt>
      <trkpt lat="45.62328" lon="3.84433">
        <ele>1472</ele>
        <time>2012-05-02T20:03:36Z</time>
      </trkpt>
      <trkpt lat="45.62505" lon="3.83887">
        <ele>1461</ele>
        <time>2012-05-02T20:04:16Z</time>
      </trkpt>
      <trkpt lat="45.6259" lon="3.83718">
        <ele>1459</ele>
        <time>2012-05-02T20:04:56Z</time>
      </trkpt>
      <trkpt lat="45.62668" lon="3.83625">
        <ele>1457</ele>
        <time>2012-05-02T20:05:36Z</time>
      </trkpt>
      <trkpt lat="45.6276" lon="3.83467">
        <ele>1454</ele>
        <time>2012-05-02T20:06:16Z</time>
      </trkpt>
      <trkpt lat="45.62803" lon="3.83353">
        <ele>1453</ele>
        <time>2012-05-02T20:06:56Z</time>
      </trkpt>
      <trkpt lat="45.62955" lon="3.83113">
        <ele>1445</ele>
        <time>2012-05-02T20:07:36Z</time>
      </trkpt>
      <trkpt lat="45.6307" lon="3.82905">
        <ele>1441</ele>
        <time>2012-05-02T20:08:16Z</time>
      </trkpt>
      <trkpt lat="45.63103" lon="3.82823">
        <ele>1439</ele>
        <time>2012-05-02T20:08:56Z</time>
      </trkpt>
      <trkpt lat="45.63145" lon="3.8267">
        <ele>1435</ele>
        <time>2012-05-02T20:09:36Z</time>
      </trkpt>
      <trkpt lat="45.63162" lon="3.82647">
        <ele>1436</ele>
        <time>2012-05-02T20:10:16Z</time>
      </trkpt>
      <trkpt lat="45.63175" lon="3.82597">
        <ele>1437</ele>
        <time>2012-05-02T20:10:56Z</time>
      </trkpt>
      <trkpt lat="45.63172" lon="3.82553">
        <ele>1439</ele>
        <time>2012-05-02T20:11:36Z</time>
      </trkpt>
      <trkpt lat="45.63142" lon="3.82488">
        <ele>1444</ele>
        <time>2012-05-02T20:12:16Z</time>
      </trkpt>
      <trkpt lat="45.63135" lon="3.82348">
        <ele>1458</ele>
        <time>2012-05-02T20:12:56Z</time>
      </trkpt>
      <trkpt lat="45.6314" lon="3.82208">
        <ele>1470</ele>
        <time>2012-05-02T20:13:36Z</time>
      </trkpt>
      <trkpt lat="45.63125" lon="3.8214">
        <ele>1472</ele>
        <time>2012-05-02T20:14:16Z</time>
      </trkpt>
      <trkpt lat="45.63163" lon="3.82073">
        <ele>1479</ele>
        <time>2012-05-02T20:14:56Z</time>
      </trkpt>
      <trkpt lat="45.63173" lon="3.82028">
        <ele>1483</ele>
        <time>2012-05-02T20:15:36Z</time>
      </trkpt>
      <trkpt lat="45.63252" lon="3.81817">
        <ele>1490</ele>
        <time>2012-05-02T20:16:16Z</time>
      </trkpt>
      <trkpt lat="45.63547" lon="3.81686">
        <ele>1499</ele>
        <time>2012-05-02T20:16:56Z</time>
      </trkpt>
      <trkpt lat="45.63605" lon="3.81537">
        <ele>1494</ele>
        <time>2012-05-02T20:17:36Z</time>
      </trkpt>
      <trkpt lat="45.63703" lon="3.81375">
        <ele>1488</ele>
        <time>2012-05-02T20:18:16Z</time>
      </trkpt>
      <trkpt lat="45.63747" lon="3.81327">
        <ele>1482</ele>
        <time>2012-05-02T20:18:56Z</time>
      </trkpt>
      <trkpt lat="45.63818" lon="3.81282">
        <ele>1473</ele>
        <time>2012-05-02T20:19:36Z</time>
      </trkpt>
      <trkpt lat="45.63857" lon="3.81275">
        <ele>1472</ele>
        <time>2012-05-02T20:20:16Z</time>
      </trkpt>
      <trkpt lat="45.63979" lon="3.81184">
        <ele>1487</ele>
        <time>2012-05-02T20:20:56Z</time>
      </trkpt>
      <trkpt lat="45.64028" lon="3.81073">
        <ele>1496</ele>
        <time>2012-05-02T20:21:36Z</time>
      </trkpt>
      <trkpt lat="45.64045" lon="3.81075">
        <ele>1498</ele>
        <time>2012-05-02T20:22:16Z</time>
      </trkpt>
      <trkpt lat="45.64082" lon="3.81112">
        <ele>1504</ele>
        <time>2012-05-02T20:22:56Z</time>
      </trkpt>
      <trkpt lat="45.64192" lon="3.81183">
        <ele>1521</ele>
        <time>2012-05-02T20:23:36Z</time>
      </trkpt>
      <trkpt lat="45.64283" lon="3.81228">
        <ele>1534</ele>
        <time>2012-05-02T20:24:16Z</time>
      </trkpt>
      <trkpt lat="45.64358" lon="3.81287">
        <ele>1544</ele>
        <time>2012-05-02T20:24:56Z</time>
      </trkpt>
      <trkpt lat="45.6444" lon="3.81305">
        <ele>1552</ele>
        <time>2012-05-02T20:25:36Z</time>
      </trkpt>
      <trkpt lat="45.64595" lon="3.81428">
        <ele>1566</ele>
        <time>2012-05-02T20:26:16Z</time>
      </trkpt>
      <trkpt lat="45.6463" lon="3.81475">
        <ele>1570</ele>
        <time>2012-05-02T20:26:56Z</time>
      </trkpt>
      <trkpt lat="45.64763" lon="3.81602">
        <ele>1584</ele>
        <time>2012-05-02T20:27:36Z</time>
      </trkpt>
      <trkpt lat="45.64863" lon="3.81675">
        <ele>1583</ele>
        <time>2012-05-02T20:28:16Z</time>
      </trkpt>
      <trkpt lat="45.64945" lon="3.81702">
        <ele>1579</ele>
        <time>2012-05-02T20:28:56Z</time>
      </trkpt>
      <trkpt lat="45.64993" lon="3.81668">
        <ele>1576</ele>
        <time>2012-05-02T20:29:36Z</time>
      </trkpt>
      <trkpt lat="45.6503" lon="3.81602">
        <ele>1574</ele>
        <time>2012-05-02T20:30:16Z</time>
      </trkpt>
      <trkpt lat="45.65043" lon="3.81457">
        <ele>1580</ele>
        <time>2012-05-02T20:30:56Z</time>
      </trkpt>
      <trkpt lat="45.65112" lon="3.81223">
        <ele>1588</ele>
        <time>2012-05-02T20:31:36Z</time>
      </trkpt>
      <trkpt lat="45.65138" lon="3.81072">
        <ele>1603</ele>
        <time>2012-05-02T20:32:16Z</time>
      </trkpt>
      <trkpt lat="45.6514" lon="3.80988">
        <ele>1610</ele>
        <time>2012-05-02T20:32:56Z</time>
      </trkpt>
      <trkpt lat="45.65132" lon="3.80847">
        <ele>1607</ele>
        <time>2012-05-02T20:33:36Z</time>
      </trkpt>
      <trkpt lat="45.6514" lon="3.80705">
        <ele>1596</ele>
        <time>2012-05-02T20:34:16Z</time>
      </trkpt>
      <trkpt lat="45.65222" lon="3.80602">
        <ele>1600</ele>
        <time>2012-05-02T20:34:56Z</time>
      </trkpt>
      <trkpt lat="45.65328" lon="3.80524">
        <ele>1601</ele>
        <time>2012-05-02T20:35:36Z</time>
      </trkpt>
      <trkpt lat="45.65456" lon="3.80509">
        <ele>1600</ele>
        <time>2012-05-02T20:36:16Z</time>
      </trkpt>
      <trkpt lat="45.65527" lon="3.80518">
        <ele>1596</ele>
        <time>2012-05-02T20:36:56Z</time>
      </trkpt>
      <trkpt lat="45.65572" lon="3.8056">
        <ele>1596</ele>
        <time>2012-05-02T20:37:36Z</time>
      </trkpt>
      <trkpt lat="45.65618" lon="3.80547">
        <ele>1593</ele>
        <time>2012-05-02T20:38:16Z</time>
      </trkpt>
      <trkpt lat="45.65687" lon="3.80522">
        <ele>1591</ele>
        <time>2012-05-02T20:38:56Z</time>
      </trkpt>
      <trkpt lat="45.66103" lon="3.7995">
        <ele>1552</ele>
        <time>2012-05-02T20:39:36Z</time>
      </trkpt>
      <trkpt lat="45.6629" lon="3.79823">
        <ele>1532</ele>
        <time>2012-05-02T20:40:16Z</time>
      </trkpt>
      <trkpt lat="45.664" lon="3.79835">
        <ele>1517</ele>
        <time>2012-05-02T20:40:56Z</time>
      </trkpt>
      <trkpt lat="45.6651" lon="3.79789">
        <ele>1508</ele>
        <time>2012-05-02T20:41:36Z</time>
      </trkpt>
      <trkpt lat="45.66618" lon="3.7967">
        <ele>1504</ele>
        <time>2012-05-02T20:42:16Z</time>
      </trkpt>
      <trkpt lat="45.66667" lon="3.79649">
        <ele>1498</ele>
        <time>2012-05-02T20:42:56Z</time>
      </trkpt>
      <trkpt lat="45.66763" lon="3.797">
        <ele>1491</ele>
        <time>2012-05-02T20:43:36Z</time>
      </trkpt>
      <trkpt lat="45.6682" lon="3.79685">
        <ele>1490</ele>
        <time>2012-05-02T20:44:16Z</time>
      </trkpt>
      <trkpt lat="45.66985" lon="3.79495">
        <ele>1482</ele>
        <time>2012-05-02T20:44:56Z</time>
      </trkpt>
      <trkpt lat="45.6715" lon="3.79262">
        <ele>1469</ele>
        <time>2012-05-02T20:45:36Z</time>
      </trkpt>
      <trkpt lat="45.67315" lon="3.78905">
        <ele>1453</ele>
        <time>2012-05-02T20:46:16Z</time>
      </trkpt>
      <trkpt lat="45.67422" lon="3.7873">
        <ele>1446</ele>
        <time>2012-05-02T20:46:56Z</time>
      </trkpt>
      <trkpt lat="45.67497" lon="3.7864">
        <ele>1437</ele>
        <time>2012-05-02T20:47:36Z</time>
      </trkpt>
      <trkpt lat="45.6765" lon="3.78587">
        <ele>1433</ele>
        <time>2012-05-02T20:48:16Z</time>
      </trkpt>
      <trkpt lat="45.68045" lon="3.78312">
        <ele>1410</ele>
        <time>2012-05-02T20:48:56Z</time>
      </trkpt>
      <trkpt lat="45.68153" lon="3.78315">
        <ele>1409</ele>
        <time>2012-05-02T20:49:36Z</time>
      </trkpt>
      <trkpt lat="45.68493" lon="3.78245">
        <ele>1389</ele>
        <time>2012-05-02T20:50:16Z</time>
      </trkpt>
      <trkpt lat="45.68537" lon="3.78238">
        <ele>1390</ele>
        <time>2012-05-02T20:50:56Z</time>
      </trkpt>
      <trkpt lat="45.68524" lon="3.78241">
        <ele>1380</ele>
        <time>2012-05-02T20:51:36Z</time>
      </trkpt>
      <trkpt lat="45.68597" lon="3.78214">
        <ele>1383</ele>
        <time>2012-05-02T20:52:16Z</time>
      </trkpt>
      <trkpt lat="45.68665" lon="3.78098">
        <ele>1397</ele>
        <time>2012-05-02T20:52:56Z</time>
      </trkpt>
      <trkpt lat="45.68687" lon="3.78015">
        <ele>1411</ele>
        <time>2012-05-02T20:53:36Z</time>
      </trkpt>
      <trkpt lat="45.68719" lon="3.77934">
        <ele>1419</ele>
        <time>2012-05-02T20:54:16Z</time>
      </trkpt>
      <trkpt lat="45.68731" lon="3.7788">
        <ele>1420</ele>
        <time>2012-05-02T20:54:56Z</time>
      </trkpt>
      <trkpt lat="45.68758" lon="3.77844">
        <ele>1419</ele>
        <time>2012-05-02T20:55:36Z</time>
      </trkpt>
      <trkpt lat="45.68804" lon="3.77808">
        <ele>1416</ele>
        <time>2012-05-02T20:56:16Z</time>
      </trkpt>
      <trkpt lat="45.6886" lon="3.77787">
        <ele>1410</ele>
        <time>2012-05-02T20:56:56Z</time>
      </trkpt>
      <trkpt lat="45.68945" lon="3.77792">
        <ele>1400</ele>
        <time>2012-05-02T20:57:36Z</time>
      </trkpt>
      <trkpt lat="45.691" lon="3.77774">
        <ele>1384</ele>
        <time>2012-05-02T20:58:16Z</time>
      </trkpt>
      <trkpt lat="45.69152" lon="3.7773">
        <ele>1385</ele>
        <time>2012-05-02T20:58:56Z</time>
      </trkpt>
      <trkpt lat="45.69251" lon="3.77706">
        <ele>1388</ele>
        <time>2012-05-02T20:59:36Z</time>
      </trkpt>
      <trkpt lat="45.69559" lon="3.77682">
        <ele>1401</ele>
        <time>2012-05-02T21:00:16Z</time>
      </trkpt>
      <trkpt lat="45.69725" lon="3.77642">
        <ele>1400</ele>
        <time>2012-05-02T21:00:56Z</time>
      </trkpt>
      <trkpt lat="45.69998" lon="3.77549">
        <ele>1402</ele>
        <time>2012-05-02T21:01:36Z</time>
      </trkpt>
      <trkpt lat="45.70075" lon="3.77579">
        <ele>1399</ele>
        <time>2012-05-02T21:02:16Z</time>
      </trkpt>
      <trkpt lat="45.70119" lon="3.77577">
        <ele>1398</ele>
        <time>2012-05-02T21:02:56Z</time>
      </trkpt>
      <trkpt lat="45.70218" lon="3.77641">
        <ele>1392</ele>
        <time>2012-05-02T21:03:36Z</time>
      </trkpt>
      <trkpt lat="45.7025" lon="3.77684">
        <ele>1387</ele>
      </trkpt>
      <trkpt lat="45.70262" lon="3.77824">
        <ele>1383</ele>
      </trkpt>
      <trkpt lat="45.7029" lon="3.77935">
        <ele>1379</ele>
      </trkpt>
      <trkpt lat="45.7033" lon="3.78025">
        <ele>1378</ele>
      </trkpt>
      <trkpt lat="45.70371" lon="3.78096">
        <ele>1374</ele>
      </trkpt>
      <trkpt lat="45.70542" lon="3.78153">
        <ele>1351</ele>
      </trkpt>
      <trkpt lat="45.70602" lon="3.78163">
        <ele>1348</ele>
      </trkpt>
      <trkpt lat="45.70713" lon="3.782">
        <ele>1350</ele>
      </trkpt>
      <trkpt lat="45.70812" lon="3.7818">
        <ele>1350</ele>
      </trkpt>
      <trkpt lat="45.70888" lon="3.78178">
        <ele>1343</ele>
      </trkpt>
      <trkpt lat="45.70946" lon="3.78201">
        <ele>1334</ele>
      </trkpt>
      <trkpt lat="45.70993" lon="3.78238">
        <ele>1335</ele>
      </trkpt>
      <trkpt lat="45.711" lon="3.78245">
        <ele>1323</ele>
      </trkpt>
      <trkpt lat="45.71143" lon="3.78259">
        <ele>1322</ele>
      </trkpt>
      <trkpt lat="45.71182" lon="3.78204">
        <ele>1318</ele>
      </trkpt>
      <trkpt lat="45.71222" lon="3.78201">
        <ele>1317</ele>
      </trkpt>
      <trkpt lat="45.71338" lon="3.78115">
        <ele>1312</ele>
      </trkpt>
      <trkpt lat="45.71384" lon="3.78058">
        <ele>1313</ele>
      </trkpt>
      <trkpt lat="45.71433" lon="3.7796">
        <ele>1315</ele>
      </trkpt>
      <trkpt lat="45.71468" lon="3.7791">
        <ele>1317</ele>
      </trkpt>
      <trkpt lat="45.71477" lon="3.77805">
        <ele>1320</ele>
      </trkpt>
      <trkpt lat="45.71514" lon="3.77784">
        <ele>1326</ele>
      </trkpt>
      <trkpt lat="45.71633" lon="3.77864">
        <ele>1327</ele>
      </trkpt>
      <trkpt lat="45.71667" lon="3.77866">
        <ele>1328</ele>
      </trkpt>
      <trkpt lat="45.7172" lon="3.77832">
        <ele>1328</ele>
      </trkpt>
      <trkpt lat="45.71786" lon="3.77732">
        <ele>1336</ele>
      </trkpt>
      <trkpt lat="45.71841" lon="3.77716">
        <ele>1332</ele>
      </trkpt>
      <trkpt lat="45.7188" lon="3.77692">
        <ele>1332</ele>
      </trkpt>
      <trkpt lat="45.72011" lon="3.77671">
        <ele>1324</ele>
      </trkpt>
      <trkpt lat="45.72099" lon="3.77722">
        <ele>1325</ele>
      </trkpt>
      <trkpt lat="45.72202" lon="3.77799">
        <ele>1327</ele>
      </trkpt>
      <trkpt lat="45.72275" lon="3.7792">
        <ele>1337</ele>
      </trkpt>
      <trkpt lat="45.72357" lon="3.78145">
        <ele>1357</ele>
      </trkpt>
      <trkpt lat="45.72421" lon="3.78232">
        <ele>1362</ele>
      </trkpt>
      <trkpt lat="45.72503" lon="3.7827">
        <ele>1361</ele>
      </trkpt>
      <trkpt lat="45.72591" lon="3.78294">
        <ele>1357</ele>
      </trkpt>
      <trkpt lat="45.72694" lon="3.78289">
        <ele>1352</ele>
      </trkpt>
      <trkpt lat="45.7272" lon="3.78305">
        <ele>1346</ele>
      </trkpt>
      <trkpt lat="45.72784" lon="3.78296">
        <ele>1337</ele>
      </trkpt>
      <trkpt lat="45.72833" lon="3.78304">
        <ele>1330</ele>
      </trkpt>
      <trkpt lat="45.72913" lon="3.78265">
        <ele>1320</ele>
      </trkpt>
      <trkpt lat="45.72959" lon="3.78171">
        <ele>1313</ele>
      </trkpt>
      <trkpt lat="45.73047" lon="3.78091">
        <ele>1302</ele>
      </trkpt>
      <trkpt lat="45.73129" lon="3.77989">
        <ele>1294</ele>
      </trkpt>
      <trkpt lat="45.73171" lon="3.78062">
        <ele>1296</ele>
      </trkpt>
      <trkpt lat="45.73264" lon="3.78109">
        <ele>1287</ele>
      </trkpt>
      <trkpt lat="45.73343" lon="3.78042">
        <ele>1279</ele>
      </trkpt>
      <trkpt lat="45.73393" lon="3.78014">
        <ele>1274</ele>
      </trkpt>
      <trkpt lat="45.73441" lon="3.7796">
        <ele>1279</ele>
      </trkpt>
      <trkpt lat="45.7356" lon="3.77953">
        <ele>1282</ele>
      </trkpt>
      <trkpt lat="45.73646" lon="3.77919">
        <ele>1284</ele>
      </trkpt>
      <trkpt lat="45.73776" lon="3.77983">
        <ele>1282</ele>
      </trkpt>
      <trkpt lat="45.73849" lon="3.77995">
        <ele>1270</ele>
      </trkpt>
      <trkpt lat="45.73953" lon="3.78003">
        <ele>1263</ele>
      </trkpt>
      <trkpt lat="45.74043" lon="3.78004">
        <ele>1258</ele>
      </trkpt>
      <trkpt lat="45.74149" lon="3.7799">
        <ele>1250</ele>
      </trkpt>
      <trkpt lat="45.74198" lon="3.7795">
        <ele>1244</ele>
      </trkpt>
      <trkpt lat="45.74259" lon="3.77972">
        <ele>1241</ele>
      </trkpt>
      <trkpt lat="45.7427" lon="3.77932">
        <ele>1241</ele>
      </trkpt>
      <trkpt lat="45.74299" lon="3.779">
        <ele>1239</ele>
      </trkpt>
      <trkpt lat="45.74276" lon="3.77825">
        <ele>1237</ele>
      </trkpt>
      <trkpt lat="45.74269" lon="3.77699">
        <ele>1230</ele>
      </trkpt>
      <trkpt lat="45.74232" lon="3.77513">
        <ele>1226</ele>
      </trkpt>
      <trkpt lat="45.74162" lon="3.77295">
        <ele>1212</ele>
      </trkpt>
      <trkpt lat="45.74154" lon="3.77198">
        <ele>1200</ele>
      </trkpt>
      <trkpt lat="45.7418" lon="3.77108">
        <ele>1189</ele>
      </trkpt>
      <trkpt lat="45.74283" lon="3.76998">
        <ele>1154</ele>
      </trkpt>
      <trkpt lat="45.74342" lon="3.76924">
        <ele>1135</ele>
      </trkpt>
      <trkpt lat="45.74371" lon="3.76799">
        <ele>1117</ele>
      </trkpt>
      <trkpt lat="45.74307" lon="3.7671">
        <ele>1111</ele>
      </trkpt>
      <trkpt lat="45.74351" lon="3.76672">
        <ele>1100</ele>
      </trkpt>
      <trkpt lat="45.74383" lon="3.76669">
        <ele>1101</ele>
      </trkpt>
      <trkpt lat="45.74406" lon="3.76566">
        <ele>1094</ele>
      </trkpt>
      <trkpt lat="45.74566" lon="3.76506">
        <ele>1081</ele>
      </trkpt>
      <trkpt lat="45.74582" lon="3.76345">
        <ele>1062</ele>
      </trkpt>
      <trkpt lat="45.74609" lon="3.76293">
        <ele>1059</ele>
      </trkpt>
      <trkpt lat="45.74661" lon="3.76325">
        <ele>1055</ele>
      </trkpt>
      <trkpt lat="45.74723" lon="3.76313">
        <ele>1042</ele>
      </trkpt>
      <trkpt lat="45.74769" lon="3.76333">
        <ele>1041</ele>
      </trkpt>
      <trkpt lat="45.7484" lon="3.7633">
        <ele>1040</ele>
      </trkpt>
      <trkpt lat="45.74873" lon="3.76275">
        <ele>1033</ele>
      </trkpt>
      <trkpt lat="45.74964" lon="3.76209">
        <ele>1024</ele>
      </trkpt>
      <trkpt lat="45.75032" lon="3.7613">
        <ele>1015</ele>
      </trkpt>
      <trkpt lat="45.75084" lon="3.75983">
        <ele>1013</ele>
      </trkpt>
      <trkpt lat="45.75113" lon="3.75949">
        <ele>1015</ele>
      </trkpt>
      <trkpt lat="45.75149" lon="3.75926">
        <ele>1019</ele>
      </trkpt>
      <trkpt lat="45.75175" lon="3.75797">
        <ele>1019</ele>
      </trkpt>
      <trkpt lat="45.75276" lon="3.75701">
        <ele>1029</ele>
      </trkpt>
      <trkpt lat="45.75311" lon="3.75635">
        <ele>1031</ele>
      </trkpt>
      <trkpt lat="45.75345" lon="3.75614">
        <ele>1034</ele>
      </trkpt>
      <trkpt lat="45.75353" lon="3.75575">
        <ele>1038</ele>
      </trkpt>
      <trkpt lat="45.75338" lon="3.75509">
        <ele>1036</ele>
      </trkpt>
      <trkpt lat="45.75373" lon="3.75456">
        <ele>1042</ele>
      </trkpt>
      <trkpt lat="45.75399" lon="3.75458">
        <ele>1047</ele>
      </trkpt>
      <trkpt lat="45.75391" lon="3.75371">
        <ele>1050</ele>
      </trkpt>
      <trkpt lat="45.75414" lon="3.75186">
        <ele>1057</ele>
      </trkpt>
      <trkpt lat="45.75455" lon="3.75067">
        <ele>1053</ele>
      </trkpt>
      <trkpt lat="45.75535" lon="3.75005">
        <ele>1059</ele>
      </trkpt>
      <trkpt lat="45.75533" lon="3.74922">
        <ele>1061</ele>
      </trkpt>
      <trkpt lat="45.75599" lon="3.74735">
        <ele>1084</ele>
      </trkpt>
      <trkpt lat="45.75636" lon="3.74707">
        <ele>1091</ele>
      </trkpt>
      <trkpt lat="45.7568" lon="3.7456">
        <ele>1111</ele>
      </trkpt>
      <trkpt lat="45.75668" lon="3.74472">
        <ele>1118</ele>
      </trkpt>
      <trkpt lat="45.75638" lon="3.74402">
        <ele>1120</ele>
      </trkpt>
      <trkpt lat="45.75628" lon="3.74321">
        <ele>1125</ele>
      </trkpt>
      <trkpt lat="45.75498" lon="3.74045">
        <ele>1136</ele>
      </trkpt>
      <trkpt lat="45.75488" lon="3.73981">
        <ele>1141</ele>
      </trkpt>
      <trkpt lat="45.755" lon="3.73908">
        <ele>1140</ele>
      </trkpt>
      <trkpt lat="45.75654" lon="3.73739">
        <ele>1133</ele>
      </trkpt>
      <trkpt lat="45.75729" lon="3.73674">
        <ele>1128</ele>
      </trkpt>
      <trkpt lat="45.75816" lon="3.73617">
        <ele>1128</ele>
      </trkpt>
      <trkpt lat="45.75888" lon="3.73533">
        <ele>1124</ele>
      </trkpt>
      <trkpt lat="45.75949" lon="3.73479">
        <ele>1125</ele>
      </trkpt>
      <trkpt lat="45.76088" lon="3.73514">
        <ele>1128</ele>
      </trkpt>
      <trkpt lat="45.7619" lon="3.73593">
        <ele>1129</ele>
      </trkpt>
      <trkpt lat="45.76254" lon="3.736">
        <ele>1129</ele>
      </trkpt>
      <trkpt lat="45.76393" lon="3.73729">
        <ele>1133</ele>
      </trkpt>
      <trkpt lat="45.76455" lon="3.73705">
        <ele>1137</ele>
      </trkpt>
      <trkpt lat="45.76465" lon="3.73677">
        <ele>1142</ele>
      </trkpt>
    </trkseg>
  </trk>
</gpx>